sensor_id;sensor_type;location;lat;lon;timestamp;P1;durP1;ratioP1;P2;durP2;ratioP2
6973;SDS011;3527;52.376;8.990;2023-04-10T00:01:44;42.57;;;23.83;;
6973;SDS011;3527;52.376;8.990;2023-04-10T00:04:10;45.07;;;25.03;;
6973;SDS011;3527;52.376;8.990;2023-04-10T00:06:37;41.10;;;23.10;;
6973;SDS011;3527;52.376;8.990;2023-04-10T00:09:04;44.93;;;24.50;;
6973;SDS011;3527;52.376;8.990;2023-04-10T00:11:30;42.53;;;24.03;;
6973;SDS011;3527;52.376;8.990;2023-04-10T00:13:57;47.77;;;25.20;;
6973;SDS011;3527;52.376;8.990;2023-04-10T00:16:23;43.13;;;23.87;;
6973;SDS011;3527;52.376;8.990;2023-04-10T00:18:50;41.13;;;22.87;;
6973;SDS011;3527;52.376;8.990;2023-04-10T00:21:17;44.10;;;23.90;;
6973;SDS011;3527;52.376;8.990;2023-04-10T00:23:43;44.53;;;24.70;;
6973;SDS011;3527;52.376;8.990;2023-04-10T00:26:10;43.63;;;25.17;;
6973;SDS011;3527;52.376;8.990;2023-04-10T00:28:36;40.50;;;24.87;;
6973;SDS011;3527;52.376;8.990;2023-04-10T00:31:03;43.73;;;24.90;;
6973;SDS011;3527;52.376;8.990;2023-04-10T00:33:30;44.70;;;25.37;;
6973;SDS011;3527;52.376;8.990;2023-04-10T00:35:57;40.87;;;24.27;;
6973;SDS011;3527;52.376;8.990;2023-04-10T00:38:24;40.53;;;23.47;;
6973;SDS011;3527;52.376;8.990;2023-04-10T00:40:50;46.23;;;24.40;;
6973;SDS011;3527;52.376;8.990;2023-04-10T00:43:17;45.50;;;25.57;;
6973;SDS011;3527;52.376;8.990;2023-04-10T00:45:45;45.27;;;25.27;;
6973;SDS011;3527;52.376;8.990;2023-04-10T00:48:15;46.13;;;25.87;;
6973;SDS011;3527;52.376;8.990;2023-04-10T00:50:41;45.17;;;24.37;;
6973;SDS011;3527;52.376;8.990;2023-04-10T00:53:08;44.33;;;25.07;;
6973;SDS011;3527;52.376;8.990;2023-04-10T00:55:35;42.87;;;24.00;;
6973;SDS011;3527;52.376;8.990;2023-04-10T00:58:02;44.67;;;24.80;;
6973;SDS011;3527;52.376;8.990;2023-04-10T01:00:28;48.67;;;25.60;;
6973;SDS011;3527;52.376;8.990;2023-04-10T01:02:56;47.50;;;25.70;;
6973;SDS011;3527;52.376;8.990;2023-04-10T01:05:23;44.63;;;25.83;;
6973;SDS011;3527;52.376;8.990;2023-04-10T01:13:08;44.37;;;24.87;;
6973;SDS011;3527;52.376;8.990;2023-04-10T01:15:39;46.30;;;25.70;;
6973;SDS011;3527;52.376;8.990;2023-04-10T01:20:35;48.80;;;26.33;;
6973;SDS011;3527;52.376;8.990;2023-04-10T01:30:38;42.27;;;24.93;;
6973;SDS011;3527;52.376;8.990;2023-04-10T01:33:06;50.90;;;27.50;;
6973;SDS011;3527;52.376;8.990;2023-04-10T01:35:35;51.37;;;27.90;;
6973;SDS011;3527;52.376;8.990;2023-04-10T01:38:02;47.40;;;27.10;;
6973;SDS011;3527;52.376;8.990;2023-04-10T01:40:30;47.30;;;26.00;;
6973;SDS011;3527;52.376;8.990;2023-04-10T01:42:58;49.13;;;27.13;;
6973;SDS011;3527;52.376;8.990;2023-04-10T01:45:26;47.17;;;27.60;;
6973;SDS011;3527;52.376;8.990;2023-04-10T01:47:53;48.33;;;26.27;;
6973;SDS011;3527;52.376;8.990;2023-04-10T01:50:20;52.27;;;28.10;;
6973;SDS011;3527;52.376;8.990;2023-04-10T01:52:50;49.57;;;28.27;;
6973;SDS011;3527;52.376;8.990;2023-04-10T01:55:19;52.67;;;28.80;;
6973;SDS011;3527;52.376;8.990;2023-04-10T01:57:46;51.50;;;28.40;;
6973;SDS011;3527;52.376;8.990;2023-04-10T02:00:14;52.43;;;27.10;;
6973;SDS011;3527;52.376;8.990;2023-04-10T02:02:41;50.37;;;26.97;;
6973;SDS011;3527;52.376;8.990;2023-04-10T02:05:09;47.33;;;26.73;;
6973;SDS011;3527;52.376;8.990;2023-04-10T02:07:40;45.43;;;27.67;;
6973;SDS011;3527;52.376;8.990;2023-04-10T02:10:09;47.70;;;26.33;;
6973;SDS011;3527;52.376;8.990;2023-04-10T02:12:52;49.37;;;27.27;;
6973;SDS011;3527;52.376;8.990;2023-04-10T02:15:22;48.77;;;27.57;;
6973;SDS011;3527;52.376;8.990;2023-04-10T02:17:49;51.33;;;28.67;;
6973;SDS011;3527;52.376;8.990;2023-04-10T02:20:17;52.20;;;28.73;;
6973;SDS011;3527;52.376;8.990;2023-04-10T02:22:44;49.27;;;27.07;;
6973;SDS011;3527;52.376;8.990;2023-04-10T02:25:11;53.27;;;28.13;;
6973;SDS011;3527;52.376;8.990;2023-04-10T02:27:38;49.93;;;27.90;;
6973;SDS011;3527;52.376;8.990;2023-04-10T02:30:05;49.10;;;27.57;;
6973;SDS011;3527;52.376;8.990;2023-04-10T02:32:31;50.43;;;28.07;;
6973;SDS011;3527;52.376;8.990;2023-04-10T02:34:59;49.40;;;28.90;;
6973;SDS011;3527;52.376;8.990;2023-04-10T02:37:27;51.60;;;29.23;;
6973;SDS011;3527;52.376;8.990;2023-04-10T02:39:54;49.63;;;28.00;;
6973;SDS011;3527;52.376;8.990;2023-04-10T02:42:21;54.57;;;30.33;;
6973;SDS011;3527;52.376;8.990;2023-04-10T02:44:47;51.10;;;28.13;;
6973;SDS011;3527;52.376;8.990;2023-04-10T02:47:14;50.93;;;28.70;;
6973;SDS011;3527;52.376;8.990;2023-04-10T02:49:41;48.17;;;28.07;;
6973;SDS011;3527;52.376;8.990;2023-04-10T02:52:08;49.33;;;28.07;;
6973;SDS011;3527;52.376;8.990;2023-04-10T02:54:34;48.80;;;26.67;;
6973;SDS011;3527;52.376;8.990;2023-04-10T02:57:01;47.37;;;27.23;;
6973;SDS011;3527;52.376;8.990;2023-04-10T02:59:28;50.50;;;27.87;;
6973;SDS011;3527;52.376;8.990;2023-04-10T03:01:54;52.83;;;28.23;;
6973;SDS011;3527;52.376;8.990;2023-04-10T03:04:21;50.83;;;28.33;;
6973;SDS011;3527;52.376;8.990;2023-04-10T03:06:48;51.63;;;28.47;;
6973;SDS011;3527;52.376;8.990;2023-04-10T03:09:15;51.60;;;28.03;;
6973;SDS011;3527;52.376;8.990;2023-04-10T03:11:42;46.50;;;27.13;;
6973;SDS011;3527;52.376;8.990;2023-04-10T03:14:11;50.37;;;28.67;;
6973;SDS011;3527;52.376;8.990;2023-04-10T03:16:38;50.03;;;27.43;;
6973;SDS011;3527;52.376;8.990;2023-04-10T03:19:05;52.43;;;29.27;;
6973;SDS011;3527;52.376;8.990;2023-04-10T03:21:31;52.30;;;30.23;;
6973;SDS011;3527;52.376;8.990;2023-04-10T03:23:58;56.03;;;29.53;;
6973;SDS011;3527;52.376;8.990;2023-04-10T03:26:25;52.77;;;29.20;;
6973;SDS011;3527;52.376;8.990;2023-04-10T03:28:51;51.07;;;27.73;;
6973;SDS011;3527;52.376;8.990;2023-04-10T03:31:18;51.30;;;28.63;;
6973;SDS011;3527;52.376;8.990;2023-04-10T03:33:45;55.80;;;29.80;;
6973;SDS011;3527;52.376;8.990;2023-04-10T03:36:12;53.67;;;28.70;;
6973;SDS011;3527;52.376;8.990;2023-04-10T03:38:38;46.17;;;28.60;;
6973;SDS011;3527;52.376;8.990;2023-04-10T03:41:05;53.47;;;28.43;;
6973;SDS011;3527;52.376;8.990;2023-04-10T03:43:32;51.43;;;28.27;;
6973;SDS011;3527;52.376;8.990;2023-04-10T03:45:58;53.10;;;29.93;;
6973;SDS011;3527;52.376;8.990;2023-04-10T03:48:25;52.80;;;29.90;;
6973;SDS011;3527;52.376;8.990;2023-04-10T03:50:53;50.00;;;27.83;;
6973;SDS011;3527;52.376;8.990;2023-04-10T03:53:20;54.63;;;28.13;;
6973;SDS011;3527;52.376;8.990;2023-04-10T03:55:47;52.73;;;28.63;;
6973;SDS011;3527;52.376;8.990;2023-04-10T03:58:13;52.77;;;28.47;;
6973;SDS011;3527;52.376;8.990;2023-04-10T04:00:40;53.20;;;27.37;;
6973;SDS011;3527;52.376;8.990;2023-04-10T04:03:07;50.40;;;27.77;;
6973;SDS011;3527;52.376;8.990;2023-04-10T04:05:34;46.77;;;27.57;;
6973;SDS011;3527;52.376;8.990;2023-04-10T04:08:01;48.53;;;28.10;;
6973;SDS011;3527;52.376;8.990;2023-04-10T04:10:30;51.90;;;26.73;;
6973;SDS011;3527;52.376;8.990;2023-04-10T04:12:57;50.80;;;28.60;;
6973;SDS011;3527;52.376;8.990;2023-04-10T04:15:43;47.47;;;26.70;;
6973;SDS011;3527;52.376;8.990;2023-04-10T04:18:12;48.50;;;26.57;;
6973;SDS011;3527;52.376;8.990;2023-04-10T04:20:57;44.67;;;26.03;;
6973;SDS011;3527;52.376;8.990;2023-04-10T04:23:43;42.90;;;24.57;;
6973;SDS011;3527;52.376;8.990;2023-04-10T04:26:30;45.47;;;24.53;;
6973;SDS011;3527;52.376;8.990;2023-04-10T04:29:06;46.17;;;26.10;;
6973;SDS011;3527;52.376;8.990;2023-04-10T04:31:35;45.67;;;24.87;;
6973;SDS011;3527;52.376;8.990;2023-04-10T04:34:02;46.57;;;25.13;;
6973;SDS011;3527;52.376;8.990;2023-04-10T04:36:29;43.37;;;25.80;;
6973;SDS011;3527;52.376;8.990;2023-04-10T04:38:56;42.17;;;24.50;;
6973;SDS011;3527;52.376;8.990;2023-04-10T04:41:23;42.53;;;24.83;;
6973;SDS011;3527;52.376;8.990;2023-04-10T04:43:49;41.13;;;24.00;;
6973;SDS011;3527;52.376;8.990;2023-04-10T04:46:18;41.07;;;24.37;;
6973;SDS011;3527;52.376;8.990;2023-04-10T04:48:45;38.83;;;23.10;;
6973;SDS011;3527;52.376;8.990;2023-04-10T04:51:12;41.77;;;24.07;;
6973;SDS011;3527;52.376;8.990;2023-04-10T04:53:38;41.63;;;23.60;;
6973;SDS011;3527;52.376;8.990;2023-04-10T04:56:05;37.43;;;22.53;;
6973;SDS011;3527;52.376;8.990;2023-04-10T04:58:32;44.73;;;24.40;;
6973;SDS011;3527;52.376;8.990;2023-04-10T05:00:59;35.90;;;22.50;;
6973;SDS011;3527;52.376;8.990;2023-04-10T05:03:26;40.77;;;23.47;;
6973;SDS011;3527;52.376;8.990;2023-04-10T05:05:56;40.23;;;23.17;;
6973;SDS011;3527;52.376;8.990;2023-04-10T05:08:23;36.60;;;22.80;;
6973;SDS011;3527;52.376;8.990;2023-04-10T05:10:49;37.00;;;22.77;;
6973;SDS011;3527;52.376;8.990;2023-04-10T05:13:16;38.37;;;21.87;;
6973;SDS011;3527;52.376;8.990;2023-04-10T05:15:43;36.03;;;21.17;;
6973;SDS011;3527;52.376;8.990;2023-04-10T05:18:10;34.93;;;20.70;;
6973;SDS011;3527;52.376;8.990;2023-04-10T05:20:37;33.47;;;21.73;;
6973;SDS011;3527;52.376;8.990;2023-04-10T05:23:03;31.47;;;19.30;;
6973;SDS011;3527;52.376;8.990;2023-04-10T05:25:30;33.80;;;21.13;;
6973;SDS011;3527;52.376;8.990;2023-04-10T05:27:57;33.13;;;20.33;;
6973;SDS011;3527;52.376;8.990;2023-04-10T05:30:23;33.93;;;20.23;;
6973;SDS011;3527;52.376;8.990;2023-04-10T05:32:50;29.67;;;19.27;;
6973;SDS011;3527;52.376;8.990;2023-04-10T05:35:17;32.97;;;20.30;;
6973;SDS011;3527;52.376;8.990;2023-04-10T05:37:43;26.73;;;18.40;;
6973;SDS011;3527;52.376;8.990;2023-04-10T05:40:10;27.07;;;19.10;;
6973;SDS011;3527;52.376;8.990;2023-04-10T05:42:37;29.67;;;19.70;;
6973;SDS011;3527;52.376;8.990;2023-04-10T05:45:03;27.90;;;17.67;;
6973;SDS011;3527;52.376;8.990;2023-04-10T05:47:30;26.77;;;17.43;;
6973;SDS011;3527;52.376;8.990;2023-04-10T05:49:57;27.90;;;18.60;;
6973;SDS011;3527;52.376;8.990;2023-04-10T05:52:24;27.90;;;18.87;;
6973;SDS011;3527;52.376;8.990;2023-04-10T05:54:50;28.40;;;17.90;;
6973;SDS011;3527;52.376;8.990;2023-04-10T05:57:17;26.23;;;18.17;;
6973;SDS011;3527;52.376;8.990;2023-04-10T05:59:44;26.90;;;17.13;;
6973;SDS011;3527;52.376;8.990;2023-04-10T06:02:10;23.23;;;16.40;;
6973;SDS011;3527;52.376;8.990;2023-04-10T06:04:37;26.53;;;16.80;;
6973;SDS011;3527;52.376;8.990;2023-04-10T06:07:05;25.17;;;17.53;;
6973;SDS011;3527;52.376;8.990;2023-04-10T06:09:31;24.33;;;16.20;;
6973;SDS011;3527;52.376;8.990;2023-04-10T06:11:58;25.50;;;16.83;;
6973;SDS011;3527;52.376;8.990;2023-04-10T06:14:24;23.40;;;17.23;;
6973;SDS011;3527;52.376;8.990;2023-04-10T06:16:51;24.80;;;16.37;;
6973;SDS011;3527;52.376;8.990;2023-04-10T06:19:18;23.63;;;15.87;;
6973;SDS011;3527;52.376;8.990;2023-04-10T06:21:44;22.50;;;16.33;;
6973;SDS011;3527;52.376;8.990;2023-04-10T06:24:12;22.37;;;15.83;;
6973;SDS011;3527;52.376;8.990;2023-04-10T06:26:39;23.10;;;15.40;;
6973;SDS011;3527;52.376;8.990;2023-04-10T06:29:06;22.27;;;15.57;;
6973;SDS011;3527;52.376;8.990;2023-04-10T06:31:32;20.47;;;14.90;;
6973;SDS011;3527;52.376;8.990;2023-04-10T06:33:59;19.83;;;13.77;;
6973;SDS011;3527;52.376;8.990;2023-04-10T06:36:26;19.33;;;13.90;;
6973;SDS011;3527;52.376;8.990;2023-04-10T06:38:53;21.73;;;14.00;;
6973;SDS011;3527;52.376;8.990;2023-04-10T06:41:20;21.07;;;14.83;;
6973;SDS011;3527;52.376;8.990;2023-04-10T06:43:46;20.07;;;14.10;;
6973;SDS011;3527;52.376;8.990;2023-04-10T06:46:13;20.03;;;13.63;;
6973;SDS011;3527;52.376;8.990;2023-04-10T06:48:41;19.70;;;14.23;;
6973;SDS011;3527;52.376;8.990;2023-04-10T06:51:08;19.57;;;13.93;;
6973;SDS011;3527;52.376;8.990;2023-04-10T06:53:34;20.00;;;14.23;;
6973;SDS011;3527;52.376;8.990;2023-04-10T06:56:01;19.97;;;13.60;;
6973;SDS011;3527;52.376;8.990;2023-04-10T06:58:29;18.90;;;13.23;;
6973;SDS011;3527;52.376;8.990;2023-04-10T07:00:56;16.70;;;13.50;;
6973;SDS011;3527;52.376;8.990;2023-04-10T07:03:24;18.83;;;13.90;;
6973;SDS011;3527;52.376;8.990;2023-04-10T07:05:50;17.27;;;13.30;;
6973;SDS011;3527;52.376;8.990;2023-04-10T07:08:17;19.27;;;13.57;;
6973;SDS011;3527;52.376;8.990;2023-04-10T07:10:44;18.57;;;13.73;;
6973;SDS011;3527;52.376;8.990;2023-04-10T07:13:10;18.10;;;13.00;;
6973;SDS011;3527;52.376;8.990;2023-04-10T07:15:37;17.37;;;13.43;;
6973;SDS011;3527;52.376;8.990;2023-04-10T07:18:04;17.67;;;13.17;;
6973;SDS011;3527;52.376;8.990;2023-04-10T07:20:31;16.97;;;12.77;;
6973;SDS011;3527;52.376;8.990;2023-04-10T07:22:57;16.30;;;12.43;;
6973;SDS011;3527;52.376;8.990;2023-04-10T07:25:24;16.13;;;12.73;;
6973;SDS011;3527;52.376;8.990;2023-04-10T07:27:50;17.03;;;12.37;;
6973;SDS011;3527;52.376;8.990;2023-04-10T07:30:17;17.97;;;13.33;;
6973;SDS011;3527;52.376;8.990;2023-04-10T07:32:44;16.73;;;12.20;;
6973;SDS011;3527;52.376;8.990;2023-04-10T07:35:11;15.30;;;11.63;;
6973;SDS011;3527;52.376;8.990;2023-04-10T07:37:38;17.17;;;12.17;;
6973;SDS011;3527;52.376;8.990;2023-04-10T07:40:06;15.47;;;11.63;;
6973;SDS011;3527;52.376;8.990;2023-04-10T07:42:33;16.70;;;12.50;;
6973;SDS011;3527;52.376;8.990;2023-04-10T07:45:00;15.50;;;11.50;;
6973;SDS011;3527;52.376;8.990;2023-04-10T07:47:27;15.20;;;11.50;;
6973;SDS011;3527;52.376;8.990;2023-04-10T07:49:54;16.50;;;12.37;;
6973;SDS011;3527;52.376;8.990;2023-04-10T07:52:21;16.23;;;11.83;;
6973;SDS011;3527;52.376;8.990;2023-04-10T07:54:48;14.90;;;11.87;;
6973;SDS011;3527;52.376;8.990;2023-04-10T07:57:15;16.60;;;12.80;;
6973;SDS011;3527;52.376;8.990;2023-04-10T07:59:41;13.53;;;11.57;;
6973;SDS011;3527;52.376;8.990;2023-04-10T08:02:08;15.93;;;11.17;;
6973;SDS011;3527;52.376;8.990;2023-04-10T08:04:35;14.73;;;11.70;;
6973;SDS011;3527;52.376;8.990;2023-04-10T08:07:02;14.73;;;12.20;;
6973;SDS011;3527;52.376;8.990;2023-04-10T08:09:28;13.70;;;11.20;;
6973;SDS011;3527;52.376;8.990;2023-04-10T08:11:55;16.40;;;11.77;;
6973;SDS011;3527;52.376;8.990;2023-04-10T08:14:22;16.27;;;12.07;;
6973;SDS011;3527;52.376;8.990;2023-04-10T08:16:49;14.00;;;11.10;;
6973;SDS011;3527;52.376;8.990;2023-04-10T08:19:15;14.70;;;11.70;;
6973;SDS011;3527;52.376;8.990;2023-04-10T08:21:42;15.80;;;12.30;;
6973;SDS011;3527;52.376;8.990;2023-04-10T08:24:09;15.40;;;11.97;;
6973;SDS011;3527;52.376;8.990;2023-04-10T08:26:35;16.03;;;11.53;;
6973;SDS011;3527;52.376;8.990;2023-04-10T08:29:02;13.90;;;11.50;;
6973;SDS011;3527;52.376;8.990;2023-04-10T08:31:29;13.33;;;11.33;;
6973;SDS011;3527;52.376;8.990;2023-04-10T08:33:56;14.33;;;11.37;;
6973;SDS011;3527;52.376;8.990;2023-04-10T08:36:24;13.90;;;11.03;;
6973;SDS011;3527;52.376;8.990;2023-04-10T08:38:52;14.23;;;11.30;;
6973;SDS011;3527;52.376;8.990;2023-04-10T08:41:19;14.43;;;11.67;;
6973;SDS011;3527;52.376;8.990;2023-04-10T08:43:46;12.90;;;11.20;;
6973;SDS011;3527;52.376;8.990;2023-04-10T08:46:12;13.13;;;10.70;;
6973;SDS011;3527;52.376;8.990;2023-04-10T08:48:47;12.77;;;9.80;;
6973;SDS011;3527;52.376;8.990;2023-04-10T08:51:18;12.10;;;10.60;;
6973;SDS011;3527;52.376;8.990;2023-04-10T08:53:51;13.13;;;10.27;;
6973;SDS011;3527;52.376;8.990;2023-04-10T08:56:19;14.00;;;10.10;;
6973;SDS011;3527;52.376;8.990;2023-04-10T08:58:46;14.83;;;10.63;;
6973;SDS011;3527;52.376;8.990;2023-04-10T09:01:13;14.40;;;11.43;;
6973;SDS011;3527;52.376;8.990;2023-04-10T09:03:40;12.30;;;9.93;;
6973;SDS011;3527;52.376;8.990;2023-04-10T09:06:08;13.80;;;10.40;;
6973;SDS011;3527;52.376;8.990;2023-04-10T09:08:34;12.27;;;9.83;;
6973;SDS011;3527;52.376;8.990;2023-04-10T09:11:01;12.80;;;10.63;;
6973;SDS011;3527;52.376;8.990;2023-04-10T09:13:40;12.77;;;10.07;;
6973;SDS011;3527;52.376;8.990;2023-04-10T09:16:08;10.93;;;9.00;;
6973;SDS011;3527;52.376;8.990;2023-04-10T09:18:42;12.30;;;9.33;;
6973;SDS011;3527;52.376;8.990;2023-04-10T09:21:09;11.23;;;9.47;;
6973;SDS011;3527;52.376;8.990;2023-04-10T09:23:36;11.50;;;9.80;;
6973;SDS011;3527;52.376;8.990;2023-04-10T09:26:22;12.50;;;9.80;;
6973;SDS011;3527;52.376;8.990;2023-04-10T09:28:56;10.63;;;8.80;;
6973;SDS011;3527;52.376;8.990;2023-04-10T09:31:27;11.03;;;8.80;;
6973;SDS011;3527;52.376;8.990;2023-04-10T09:34:08;11.23;;;9.40;;
6973;SDS011;3527;52.376;8.990;2023-04-10T09:36:34;12.30;;;9.70;;
6973;SDS011;3527;52.376;8.990;2023-04-10T09:39:03;10.63;;;8.83;;
6973;SDS011;3527;52.376;8.990;2023-04-10T09:41:30;11.73;;;9.47;;
6973;SDS011;3527;52.376;8.990;2023-04-10T09:44:09;11.87;;;9.93;;
6973;SDS011;3527;52.376;8.990;2023-04-10T09:46:37;11.93;;;9.50;;
6973;SDS011;3527;52.376;8.990;2023-04-10T09:49:03;11.70;;;9.13;;
6973;SDS011;3527;52.376;8.990;2023-04-10T09:51:31;11.30;;;9.50;;
6973;SDS011;3527;52.376;8.990;2023-04-10T09:53:59;10.00;;;8.87;;
6973;SDS011;3527;52.376;8.990;2023-04-10T09:56:27;10.03;;;8.93;;
6973;SDS011;3527;52.376;8.990;2023-04-10T09:58:58;13.40;;;9.10;;
6973;SDS011;3527;52.376;8.990;2023-04-10T10:01:28;11.97;;;9.53;;
6973;SDS011;3527;52.376;8.990;2023-04-10T10:04:00;12.30;;;9.63;;
6973;SDS011;3527;52.376;8.990;2023-04-10T10:06:29;10.60;;;9.47;;
6973;SDS011;3527;52.376;8.990;2023-04-10T10:09:05;11.10;;;9.13;;
6973;SDS011;3527;52.376;8.990;2023-04-10T10:11:33;11.00;;;8.50;;
6973;SDS011;3527;52.376;8.990;2023-04-10T10:14:12;11.03;;;8.80;;
6973;SDS011;3527;52.376;8.990;2023-04-10T10:16:59;10.87;;;9.00;;
6973;SDS011;3527;52.376;8.990;2023-04-10T10:19:30;10.40;;;8.93;;
6973;SDS011;3527;52.376;8.990;2023-04-10T10:21:59;8.93;;;7.90;;
6973;SDS011;3527;52.376;8.990;2023-04-10T10:24:26;9.30;;;8.27;;
6973;SDS011;3527;52.376;8.990;2023-04-10T10:26:53;9.30;;;8.00;;
6973;SDS011;3527;52.376;8.990;2023-04-10T10:29:20;8.70;;;7.80;;
6973;SDS011;3527;52.376;8.990;2023-04-10T10:31:48;9.97;;;7.97;;
6973;SDS011;3527;52.376;8.990;2023-04-10T10:34:15;9.83;;;7.20;;
6973;SDS011;3527;52.376;8.990;2023-04-10T10:36:42;8.43;;;7.40;;
6973;SDS011;3527;52.376;8.990;2023-04-10T10:39:15;9.53;;;7.10;;
6973;SDS011;3527;52.376;8.990;2023-04-10T10:41:55;8.43;;;7.30;;
6973;SDS011;3527;52.376;8.990;2023-04-10T10:47:03;7.93;;;6.90;;
6973;SDS011;3527;52.376;8.990;2023-04-10T10:49:50;7.43;;;6.63;;
6973;SDS011;3527;52.376;8.990;2023-04-10T10:52:35;7.90;;;6.80;;
6973;SDS011;3527;52.376;8.990;2023-04-10T11:00:14;9.10;;;7.20;;
6973;SDS011;3527;52.376;8.990;2023-04-10T11:02:41;7.07;;;6.37;;
6973;SDS011;3527;52.376;8.990;2023-04-10T11:05:08;8.10;;;7.30;;
6973;SDS011;3527;52.376;8.990;2023-04-10T11:10:57;9.27;;;7.30;;
6973;SDS011;3527;52.376;8.990;2023-04-10T11:13:16;7.47;;;6.20;;
6973;SDS011;3527;52.376;8.990;2023-04-10T11:15:43;8.27;;;6.13;;
6973;SDS011;3527;52.376;8.990;2023-04-10T11:18:10;6.90;;;6.03;;
6973;SDS011;3527;52.376;8.990;2023-04-10T11:23:24;7.47;;;6.40;;
6973;SDS011;3527;52.376;8.990;2023-04-10T11:25:52;6.80;;;6.03;;
6973;SDS011;3527;52.376;8.990;2023-04-10T11:28:37;7.87;;;6.40;;
6973;SDS011;3527;52.376;8.990;2023-04-10T11:31:20;7.73;;;6.37;;
6973;SDS011;3527;52.376;8.990;2023-04-10T11:36:22;6.57;;;5.90;;
6973;SDS011;3527;52.376;8.990;2023-04-10T11:38:58;7.60;;;6.10;;
6973;SDS011;3527;52.376;8.990;2023-04-10T11:41:28;6.17;;;5.57;;
6973;SDS011;3527;52.376;8.990;2023-04-10T11:43:56;8.13;;;6.03;;
6973;SDS011;3527;52.376;8.990;2023-04-10T11:46:23;7.70;;;5.43;;
6973;SDS011;3527;52.376;8.990;2023-04-10T11:49:08;7.43;;;5.37;;
6973;SDS011;3527;52.376;8.990;2023-04-10T11:51:35;7.67;;;5.37;;
6973;SDS011;3527;52.376;8.990;2023-04-10T11:54:12;6.30;;;5.70;;
6973;SDS011;3527;52.376;8.990;2023-04-10T11:56:40;7.03;;;5.73;;
6973;SDS011;3527;52.376;8.990;2023-04-10T11:59:07;7.80;;;5.80;;
6973;SDS011;3527;52.376;8.990;2023-04-10T12:01:40;7.10;;;6.20;;
6973;SDS011;3527;52.376;8.990;2023-04-10T12:04:12;7.10;;;5.87;;
6973;SDS011;3527;52.376;8.990;2023-04-10T12:06:42;6.20;;;5.60;;
6973;SDS011;3527;52.376;8.990;2023-04-10T12:09:12;7.67;;;5.57;;
6973;SDS011;3527;52.376;8.990;2023-04-10T12:11:47;6.13;;;5.53;;
6973;SDS011;3527;52.376;8.990;2023-04-10T12:14:14;6.10;;;5.13;;
6973;SDS011;3527;52.376;8.990;2023-04-10T12:16:40;5.67;;;4.80;;
6973;SDS011;3527;52.376;8.990;2023-04-10T12:19:07;6.00;;;4.87;;
6973;SDS011;3527;52.376;8.990;2023-04-10T12:21:37;6.07;;;5.33;;
6973;SDS011;3527;52.376;8.990;2023-04-10T12:24:04;5.93;;;5.23;;
6973;SDS011;3527;52.376;8.990;2023-04-10T12:26:31;7.10;;;5.53;;
6973;SDS011;3527;52.376;8.990;2023-04-10T12:28:58;5.80;;;5.20;;
6973;SDS011;3527;52.376;8.990;2023-04-10T12:31:31;7.97;;;5.83;;
6973;SDS011;3527;52.376;8.990;2023-04-10T12:33:59;6.23;;;5.27;;
6973;SDS011;3527;52.376;8.990;2023-04-10T12:36:27;5.93;;;5.27;;
6973;SDS011;3527;52.376;8.990;2023-04-10T12:38:55;6.00;;;5.40;;
6973;SDS011;3527;52.376;8.990;2023-04-10T12:41:27;5.60;;;5.00;;
6973;SDS011;3527;52.376;8.990;2023-04-10T12:44:05;5.87;;;5.20;;
6973;SDS011;3527;52.376;8.990;2023-04-10T12:46:32;6.40;;;5.63;;
6973;SDS011;3527;52.376;8.990;2023-04-10T12:49:07;5.97;;;5.30;;
6973;SDS011;3527;52.376;8.990;2023-04-10T12:52:07;5.33;;;4.77;;
6973;SDS011;3527;52.376;8.990;2023-04-10T12:56:54;6.50;;;5.47;;
6973;SDS011;3527;52.376;8.990;2023-04-10T12:59:21;5.87;;;5.00;;
6973;SDS011;3527;52.376;8.990;2023-04-10T13:01:49;7.37;;;5.47;;
6973;SDS011;3527;52.376;8.990;2023-04-10T13:04:16;6.60;;;5.73;;
6973;SDS011;3527;52.376;8.990;2023-04-10T13:06:44;6.60;;;5.80;;
6973;SDS011;3527;52.376;8.990;2023-04-10T13:09:11;6.90;;;6.13;;
6973;SDS011;3527;52.376;8.990;2023-04-10T13:11:39;9.00;;;5.73;;
6973;SDS011;3527;52.376;8.990;2023-04-10T13:14:07;7.43;;;5.67;;
6973;SDS011;3527;52.376;8.990;2023-04-10T13:16:34;6.27;;;5.27;;
6973;SDS011;3527;52.376;8.990;2023-04-10T13:19:01;6.17;;;5.50;;
6973;SDS011;3527;52.376;8.990;2023-04-10T13:21:28;6.63;;;5.60;;
6973;SDS011;3527;52.376;8.990;2023-04-10T13:23:55;5.90;;;5.30;;
6973;SDS011;3527;52.376;8.990;2023-04-10T13:26:22;6.67;;;5.17;;
6973;SDS011;3527;52.376;8.990;2023-04-10T13:28:49;5.77;;;4.97;;
6973;SDS011;3527;52.376;8.990;2023-04-10T13:31:15;6.30;;;5.50;;
6973;SDS011;3527;52.376;8.990;2023-04-10T13:33:43;5.00;;;4.50;;
6973;SDS011;3527;52.376;8.990;2023-04-10T13:36:12;6.30;;;4.93;;
6973;SDS011;3527;52.376;8.990;2023-04-10T13:38:39;5.53;;;4.97;;
6973;SDS011;3527;52.376;8.990;2023-04-10T13:41:06;4.97;;;4.40;;
6973;SDS011;3527;52.376;8.990;2023-04-10T13:43:33;5.27;;;4.77;;
6973;SDS011;3527;52.376;8.990;2023-04-10T13:45:59;6.83;;;4.73;;
6973;SDS011;3527;52.376;8.990;2023-04-10T13:48:26;5.50;;;4.53;;
6973;SDS011;3527;52.376;8.990;2023-04-10T13:51:06;4.87;;;4.30;;
6973;SDS011;3527;52.376;8.990;2023-04-10T13:53:33;5.67;;;4.53;;
6973;SDS011;3527;52.376;8.990;2023-04-10T13:55:59;4.43;;;4.00;;
6973;SDS011;3527;52.376;8.990;2023-04-10T13:58:26;5.00;;;4.50;;
6973;SDS011;3527;52.376;8.990;2023-04-10T14:00:57;5.70;;;4.67;;
6973;SDS011;3527;52.376;8.990;2023-04-10T14:03:24;6.20;;;5.00;;
6973;SDS011;3527;52.376;8.990;2023-04-10T14:05:50;5.23;;;4.63;;
6973;SDS011;3527;52.376;8.990;2023-04-10T14:08:18;7.00;;;4.77;;
6973;SDS011;3527;52.376;8.990;2023-04-10T14:10:45;5.50;;;4.53;;
6973;SDS011;3527;52.376;8.990;2023-04-10T14:13:16;6.23;;;4.13;;
6973;SDS011;3527;52.376;8.990;2023-04-10T14:15:42;5.03;;;4.30;;
6973;SDS011;3527;52.376;8.990;2023-04-10T14:18:09;6.13;;;3.97;;
6973;SDS011;3527;52.376;8.990;2023-04-10T14:20:36;4.87;;;3.90;;
6973;SDS011;3527;52.376;8.990;2023-04-10T14:23:03;4.40;;;4.00;;
6973;SDS011;3527;52.376;8.990;2023-04-10T14:25:30;4.47;;;4.00;;
6973;SDS011;3527;52.376;8.990;2023-04-10T14:27:57;4.30;;;3.63;;
6973;SDS011;3527;52.376;8.990;2023-04-10T14:30:24;5.30;;;3.97;;
6973;SDS011;3527;52.376;8.990;2023-04-10T14:32:56;3.97;;;3.40;;
6973;SDS011;3527;52.376;8.990;2023-04-10T14:35:22;4.13;;;3.73;;
6973;SDS011;3527;52.376;8.990;2023-04-10T14:37:49;5.10;;;3.63;;
6973;SDS011;3527;52.376;8.990;2023-04-10T14:40:15;3.90;;;3.27;;
6973;SDS011;3527;52.376;8.990;2023-04-10T14:42:42;3.37;;;2.90;;
6973;SDS011;3527;52.376;8.990;2023-04-10T14:45:09;4.07;;;3.00;;
6973;SDS011;3527;52.376;8.990;2023-04-10T14:47:36;3.30;;;2.80;;
6973;SDS011;3527;52.376;8.990;2023-04-10T14:50:02;3.40;;;3.10;;
6973;SDS011;3527;52.376;8.990;2023-04-10T14:52:29;3.30;;;2.90;;
6973;SDS011;3527;52.376;8.990;2023-04-10T14:54:55;3.17;;;2.80;;
6973;SDS011;3527;52.376;8.990;2023-04-10T14:57:22;3.83;;;3.10;;
6973;SDS011;3527;52.376;8.990;2023-04-10T14:59:49;3.60;;;3.10;;
6973;SDS011;3527;52.376;8.990;2023-04-10T15:02:15;3.17;;;2.87;;
6973;SDS011;3527;52.376;8.990;2023-04-10T15:04:42;4.10;;;3.00;;
6973;SDS011;3527;52.376;8.990;2023-04-10T15:07:08;3.57;;;3.07;;
6973;SDS011;3527;52.376;8.990;2023-04-10T15:09:35;2.93;;;2.47;;
6973;SDS011;3527;52.376;8.990;2023-04-10T15:12:01;3.03;;;2.60;;
6973;SDS011;3527;52.376;8.990;2023-04-10T15:14:29;3.67;;;2.67;;
6973;SDS011;3527;52.376;8.990;2023-04-10T15:16:56;3.30;;;2.97;;
6973;SDS011;3527;52.376;8.990;2023-04-10T15:19:22;3.47;;;2.47;;
6973;SDS011;3527;52.376;8.990;2023-04-10T15:21:49;2.90;;;2.60;;
6973;SDS011;3527;52.376;8.990;2023-04-10T15:24:16;3.30;;;2.50;;
6973;SDS011;3527;52.376;8.990;2023-04-10T15:26:43;3.40;;;2.80;;
6973;SDS011;3527;52.376;8.990;2023-04-10T15:29:12;4.50;;;2.87;;
6973;SDS011;3527;52.376;8.990;2023-04-10T15:31:39;2.57;;;2.33;;
6973;SDS011;3527;52.376;8.990;2023-04-10T15:34:06;2.70;;;2.37;;
6973;SDS011;3527;52.376;8.990;2023-04-10T15:36:32;3.50;;;2.57;;
6973;SDS011;3527;52.376;8.990;2023-04-10T15:38:59;3.73;;;2.83;;